Eviapetrol I — SY5401 — position and weather

sailwx.info

Track history (hours):
 
Tides and Currents Weather Stations Pressure Air Temp Water Temp Dewpoint Dewpoint Depression Visibility Wind Speed Wind Dir Waves Ship Positions

Eviapetrol I

Last reported at 2014-Nov-22 01:05 UTC. Time now 2014-Nov-27 06:40 UTC.
Position N 37°36' E 024°05'.

Length 75 m; draft 4.5 m.

Type: Tanker. MMSI: 240285000.

Date/timePositionNaut miles runAvg speedWind from/ knotsBaromVisibWave heightAir tempDewpointWater temp
2014-Nov-22 01:05N 37°36' E 024°05'7 9.1
2014-Nov-22 00:18N 37°37' E 023°56'7 9.5
2014-Nov-21 23:33N 37°38' E 023°48'9 8.6
2014-Nov-21 22:33N 37°44' E 023°39'9 8.7
2014-Nov-21 21:33N 37°50' E 023°31'9 8.3
2014-Nov-21 20:31N 37°56' E 023°23'9 6.6
2014-Nov-21 19:08N 38°01' E 023°33'2 3.5
2014-Nov-21 18:26N 38°02' E 023°36'0 0.1
2014-Nov-21 17:32N 38°02' E 023°36'0 0.0
2014-Nov-21 16:29N 38°02' E 023°36'0 0.0
2014-Nov-21 15:32N 38°02' E 023°36'0 0.0
2014-Nov-21 14:32N 38°02' E 023°36'0 0.0
2014-Nov-21 13:32N 38°02' E 023°36'0 0.0
2014-Nov-21 12:29N 38°02' E 023°36'0 0.0
2014-Nov-21 11:32N 38°02' E 023°36'0 0.0
2014-Nov-21 10:32N 38°02' E 023°36'0 0.0
2014-Nov-21 09:29N 38°02' E 023°36'0 0.0
2014-Nov-21 08:32N 38°02' E 023°36'0 0.0
2014-Nov-21 07:32N 38°02' E 023°36'1 0.9
2014-Nov-21 06:33N 38°01' E 023°35'0 0.1
2014-Nov-21 05:33N 38°01' E 023°35'0 0.0
2014-Nov-21 04:33N 38°01' E 023°35'12 3.9
2014-Nov-21 01:25N 37°53' E 023°23'8 9.2
2014-Nov-21 00:33N 37°50' E 023°32'9 8.8
2014-Nov-20 23:33N 37°46' E 023°42'9 8.8
2014-Nov-20 22:31N 37°39' E 023°50'11 9.4
2014-Nov-20 21:19N 37°34' E 024°03'7 9.6
2014-Nov-20 20:33N 37°32' E 024°11'9 9.3
2014-Nov-20 19:33N 37°31' E 024°23'10 9.7
2014-Nov-20 18:33N 37°31' E 024°35'10 9.6
2014-Nov-20 17:33N 37°32' E 024°47'10 9.5
2014-Nov-20 16:33N 37°32' E 024°59'9 9.5
2014-Nov-20 15:33N 37°30' E 025°11'9 8.7
2014-Nov-20 14:33N 37°33' E 025°22'8 7.6
2014-Nov-20 13:33N 37°31' E 025°31'9 8.9
2014-Nov-20 12:33N 37°30' E 025°42'9 9.0
2014-Nov-20 11:33N 37°29' E 025°53'9 9.5
2014-Nov-20 10:33N 37°30' E 026°05'1110.2
2014-Nov-20 09:30N 37°35' E 026°17'  
2014-Nov-17 20:33N 37°51' E 026°48'7 0.4
2014-Nov-17 04:31N 37°50' E 026°40'11 9.2
2014-Nov-17 03:20N 37°52' E 026°26'113 7.6
2014-Nov-16 12:30N 37°37' E 024°04'11 9.4
2014-Nov-16 11:20N 37°38' E 023°50'7 9.3
2014-Nov-16 10:33N 37°40' E 023°42'9 9.4
2014-Nov-16 09:33N 37°49' E 023°37'9 8.5
2014-Nov-16 08:34N 37°57' E 023°34'4 4.3
2014-Nov-16 07:33N 38°01' E 023°32'0 0.0
2014-Nov-16 06:33N 38°01' E 023°32'0 0.0
2014-Nov-16 05:33N 38°01' E 023°32'0 0.0
2014-Nov-16 04:27N 38°01' E 023°32'0 0.1
2014-Nov-16 03:33N 38°01' E 023°32'2 2.2
2014-Nov-16 02:33N 38°01' E 023°35'1 0.5
2014-Nov-16 01:31N 38°02' E 023°36'0 0.0
2014-Nov-16 00:31N 38°02' E 023°36'0 0.0
2014-Nov-15 23:31N 38°02' E 023°36'0 0.0
2014-Nov-15 22:25N 38°02' E 023°36'0 0.0
2014-Nov-15 21:25N 38°02' E 023°36'0 0.0
2014-Nov-15 20:25N 38°02' E 023°36'0 0.0
2014-Nov-15 19:31N 38°02' E 023°36'0 0.0
2014-Nov-15 18:16N 38°02' E 023°36'0 0.0
2014-Nov-15 17:10N 38°02' E 023°36'0 0.0
2014-Nov-15 16:31N 38°02' E 023°36'3 2.8
2014-Nov-15 15:33N 38°01' E 023°32'1 0.6
2014-Nov-15 14:31N 38°02' E 023°32'0 0.0
2014-Nov-15 13:31N 38°02' E 023°32'0 0.0
2014-Nov-15 12:31N 38°02' E 023°32'0 0.0
2014-Nov-15 11:31N 38°02' E 023°32'0 0.4
2014-Nov-15 10:14N 38°01' E 023°32'5 7.9
2014-Nov-15 09:34N 37°57' E 023°35'8 8.1
2014-Nov-15 08:34N 37°50' E 023°40'9 9.2
2014-Nov-15 07:32N 37°41' E 023°45'9 9.1
2014-Nov-15 06:33N 37°38' E 023°56'10 9.6
2014-Nov-15 05:34N 37°38' E 024°08'1010.3
2014-Nov-15 04:34N 37°45' E 024°18'1110.3
2014-Nov-15 03:31N 37°52' E 024°28'2010.2
2014-Nov-15 01:34N 38°05' E 024°47'162 4.0
2014-Nov-13 09:14N 40°39' E 025°50'7 9.9
2014-Nov-13 08:33N 40°45' E 025°53'5 4.9
2014-Nov-13 07:32N 40°50' E 025°55'0 0.0
2014-Nov-13 06:32N 40°50' E 025°55'0 0.0
2014-Nov-13 05:32N 40°50' E 025°55'0 0.0
2014-Nov-13 04:32N 40°50' E 025°55'0 0.0
2014-Nov-13 03:32N 40°50' E 025°55'0 0.0
2014-Nov-13 02:32N 40°50' E 025°55'0 0.0
2014-Nov-13 01:32N 40°50' E 025°55'0 0.0
2014-Nov-13 00:32N 40°50' E 025°55'0 0.0
2014-Nov-12 23:32N 40°50' E 025°55'0 0.0
2014-Nov-12 22:32N 40°50' E 025°55'0 0.0
2014-Nov-12 21:32N 40°50' E 025°55'0 0.0
2014-Nov-12 20:32N 40°50' E 025°55'0 0.0
2014-Nov-12 19:29N 40°50' E 025°55'0 0.0
2014-Nov-12 18:32N 40°50' E 025°55'0 0.0
2014-Nov-12 17:32N 40°50' E 025°55'0 0.0
2014-Nov-12 16:32N 40°50' E 025°55'0 0.0
2014-Nov-12 15:32N 40°50' E 025°55'0 0.0
2014-Nov-12 14:32N 40°50' E 025°55'0 0.0
2014-Nov-12 13:33N 40°50' E 025°55'2 2.0
2014-Nov-12 12:33N 40°49' E 025°53'22 9.1
2014-Nov-12 10:12N 40°34' E 025°32'18 8.8
2014-Nov-12 08:10N 40°20' E 025°18'8 9.7
2014-Nov-12 07:22N 40°13' E 025°12'8 9.0
2014-Nov-12 06:28N 40°07' E 025°06'8 9.0
2014-Nov-12 05:33N 39°60' E 025°00'  
Track history (hours):
 
Tides and Currents Weather Stations Pressure Air Temp Water Temp Dewpoint Dewpoint Depression Visibility Wind Speed Wind Dir Waves Ship Positions

Eviapetrol I

Last reported at 2014-Nov-22 01:05 UTC. Time now 2014-Nov-27 06:40 UTC.
Position N 37°36' E 024°05'.

Length 75 m; draft 4.5 m.

Type: Tanker. MMSI: 240285000.

Date/timePositionNaut miles runAvg speedWind from/ knotsBaromVisibWave heightAir tempDewpointWater temp
2014-Nov-22 01:05N 37°36' E 024°05'7 9.1
2014-Nov-22 00:18N 37°37' E 023°56'7 9.5
2014-Nov-21 23:33N 37°38' E 023°48'9 8.6
2014-Nov-21 22:33N 37°44' E 023°39'9 8.7
2014-Nov-21 21:33N 37°50' E 023°31'9 8.3
2014-Nov-21 20:31N 37°56' E 023°23'9 6.6
2014-Nov-21 19:08N 38°01' E 023°33'2 3.5
2014-Nov-21 18:26N 38°02' E 023°36'0 0.1
2014-Nov-21 17:32N 38°02' E 023°36'0 0.0
2014-Nov-21 16:29N 38°02' E 023°36'0 0.0
2014-Nov-21 15:32N 38°02' E 023°36'0 0.0
2014-Nov-21 14:32N 38°02' E 023°36'0 0.0
2014-Nov-21 13:32N 38°02' E 023°36'0 0.0
2014-Nov-21 12:29N 38°02' E 023°36'0 0.0
2014-Nov-21 11:32N 38°02' E 023°36'0 0.0
2014-Nov-21 10:32N 38°02' E 023°36'0 0.0
2014-Nov-21 09:29N 38°02' E 023°36'0 0.0
2014-Nov-21 08:32N 38°02' E 023°36'0 0.0
2014-Nov-21 07:32N 38°02' E 023°36'1 0.9
2014-Nov-21 06:33N 38°01' E 023°35'0 0.1
2014-Nov-21 05:33N 38°01' E 023°35'0 0.0
2014-Nov-21 04:33N 38°01' E 023°35'12 3.9
2014-Nov-21 01:25N 37°53' E 023°23'8 9.2
2014-Nov-21 00:33N 37°50' E 023°32'9 8.8
2014-Nov-20 23:33N 37°46' E 023°42'9 8.8
2014-Nov-20 22:31N 37°39' E 023°50'11 9.4
2014-Nov-20 21:19N 37°34' E 024°03'7 9.6
2014-Nov-20 20:33N 37°32' E 024°11'9 9.3
2014-Nov-20 19:33N 37°31' E 024°23'10 9.7
2014-Nov-20 18:33N 37°31' E 024°35'10 9.6
2014-Nov-20 17:33N 37°32' E 024°47'10 9.5
2014-Nov-20 16:33N 37°32' E 024°59'9 9.5
2014-Nov-20 15:33N 37°30' E 025°11'9 8.7
2014-Nov-20 14:33N 37°33' E 025°22'8 7.6
2014-Nov-20 13:33N 37°31' E 025°31'9 8.9
2014-Nov-20 12:33N 37°30' E 025°42'9 9.0
2014-Nov-20 11:33N 37°29' E 025°53'9 9.5
2014-Nov-20 10:33N 37°30' E 026°05'1110.2
2014-Nov-20 09:30N 37°35' E 026°17'  
2014-Nov-17 20:33N 37°51' E 026°48'7 0.4
2014-Nov-17 04:31N 37°50' E 026°40'11 9.2
2014-Nov-17 03:20N 37°52' E 026°26'113 7.6
2014-Nov-16 12:30N 37°37' E 024°04'11 9.4
2014-Nov-16 11:20N 37°38' E 023°50'7 9.3
2014-Nov-16 10:33N 37°40' E 023°42'9 9.4
2014-Nov-16 09:33N 37°49' E 023°37'9 8.5
2014-Nov-16 08:34N 37°57' E 023°34'4 4.3
2014-Nov-16 07:33N 38°01' E 023°32'0 0.0
2014-Nov-16 06:33N 38°01' E 023°32'0 0.0
2014-Nov-16 05:33N 38°01' E 023°32'0 0.0
2014-Nov-16 04:27N 38°01' E 023°32'0 0.1
2014-Nov-16 03:33N 38°01' E 023°32'2 2.2
2014-Nov-16 02:33N 38°01' E 023°35'1 0.5
2014-Nov-16 01:31N 38°02' E 023°36'0 0.0
2014-Nov-16 00:31N 38°02' E 023°36'0 0.0
2014-Nov-15 23:31N 38°02' E 023°36'0 0.0
2014-Nov-15 22:25N 38°02' E 023°36'0 0.0
2014-Nov-15 21:25N 38°02' E 023°36'0 0.0
2014-Nov-15 20:25N 38°02' E 023°36'0 0.0
2014-Nov-15 19:31N 38°02' E 023°36'0 0.0
2014-Nov-15 18:16N 38°02' E 023°36'0 0.0
2014-Nov-15 17:10N 38°02' E 023°36'0 0.0
2014-Nov-15 16:31N 38°02' E 023°36'3 2.8
2014-Nov-15 15:33N 38°01' E 023°32'1 0.6
2014-Nov-15 14:31N 38°02' E 023°32'0 0.0
2014-Nov-15 13:31N 38°02' E 023°32'0 0.0
2014-Nov-15 12:31N 38°02' E 023°32'0 0.0
2014-Nov-15 11:31N 38°02' E 023°32'0 0.4
2014-Nov-15 10:14N 38°01' E 023°32'5 7.9
2014-Nov-15 09:34N 37°57' E 023°35'8 8.1
2014-Nov-15 08:34N 37°50' E 023°40'9 9.2
2014-Nov-15 07:32N 37°41' E 023°45'9 9.1
2014-Nov-15 06:33N 37°38' E 023°56'10 9.6
2014-Nov-15 05:34N 37°38' E 024°08'1010.3
2014-Nov-15 04:34N 37°45' E 024°18'1110.3
2014-Nov-15 03:31N 37°52' E 024°28'2010.2
2014-Nov-15 01:34N 38°05' E 024°47'162 4.0
2014-Nov-13 09:14N 40°39' E 025°50'7 9.9
2014-Nov-13 08:33N 40°45' E 025°53'5 4.9
2014-Nov-13 07:32N 40°50' E 025°55'0 0.0
2014-Nov-13 06:32N 40°50' E 025°55'0 0.0
2014-Nov-13 05:32N 40°50' E 025°55'0 0.0
2014-Nov-13 04:32N 40°50' E 025°55'0 0.0
2014-Nov-13 03:32N 40°50' E 025°55'0 0.0
2014-Nov-13 02:32N 40°50' E 025°55'0 0.0
2014-Nov-13 01:32N 40°50' E 025°55'0 0.0
2014-Nov-13 00:32N 40°50' E 025°55'0 0.0
2014-Nov-12 23:32N 40°50' E 025°55'0 0.0
2014-Nov-12 22:32N 40°50' E 025°55'0 0.0
2014-Nov-12 21:32N 40°50' E 025°55'0 0.0
2014-Nov-12 20:32N 40°50' E 025°55'0 0.0
2014-Nov-12 19:29N 40°50' E 025°55'0 0.0
2014-Nov-12 18:32N 40°50' E 025°55'0 0.0
2014-Nov-12 17:32N 40°50' E 025°55'0 0.0
2014-Nov-12 16:32N 40°50' E 025°55'0 0.0
2014-Nov-12 15:32N 40°50' E 025°55'0 0.0
2014-Nov-12 14:32N 40°50' E 025°55'0 0.0
2014-Nov-12 13:33N 40°50' E 025°55'2 2.0
2014-Nov-12 12:33N 40°49' E 025°53'22 9.1
2014-Nov-12 10:12N 40°34' E 025°32'18 8.8
2014-Nov-12 08:10N 40°20' E 025°18'8 9.7
2014-Nov-12 07:22N 40°13' E 025°12'8 9.0
2014-Nov-12 06:28N 40°07' E 025°06'8 9.0
2014-Nov-12 05:33N 39°60' E 025°00'  

Dump ship's entire track history